createdAt,value
2023-02-21T00:00:48.158Z,9.41
2023-02-21T00:03:30.434Z,9.31
2023-02-21T00:06:12.805Z,9.31
2023-02-21T00:08:55.164Z,9.25
2023-02-21T00:11:37.483Z,9.12
2023-02-21T00:14:22.400Z,9.05
2023-02-21T00:17:04.670Z,9.06
2023-02-21T00:19:46.959Z,9.03
2023-02-21T00:22:29.296Z,8.89
2023-02-21T00:25:11.648Z,8.87
2023-02-21T00:27:53.941Z,8.93
2023-02-21T00:30:38.899Z,8.98
2023-02-21T00:33:21.360Z,8.97
2023-02-21T00:36:03.653Z,8.98
2023-02-21T00:38:45.989Z,8.86
2023-02-21T00:41:28.295Z,8.86
2023-02-21T00:44:11.207Z,8.94
2023-02-21T00:46:56.208Z,8.90
2023-02-21T00:49:38.589Z,8.77
2023-02-21T00:52:21.147Z,8.80
2023-02-21T00:55:03.474Z,8.75
2023-02-21T00:57:46.167Z,8.85
2023-02-21T01:00:33.392Z,8.87
2023-02-21T01:03:18.431Z,8.80
2023-02-21T01:06:00.878Z,8.87
2023-02-21T01:08:45.293Z,8.82
2023-02-21T01:11:30.896Z,8.67
2023-02-21T01:14:13.222Z,8.67
2023-02-21T01:16:57.350Z,8.65
2023-02-21T01:19:44.539Z,8.65
2023-02-21T01:22:26.843Z,8.65
2023-02-21T01:25:10.309Z,8.59
2023-02-21T01:27:52.879Z,8.51
2023-02-21T01:30:35.331Z,8.58
2023-02-21T01:33:17.682Z,8.59
2023-02-21T01:36:02.798Z,8.44
2023-02-21T01:38:47.808Z,8.38
2023-02-21T01:41:30.180Z,8.33
2023-02-21T01:44:14.789Z,8.31
2023-02-21T01:46:57.128Z,8.15
2023-02-21T01:49:39.465Z,8.21
2023-02-21T01:52:24.398Z,8.14
2023-02-21T01:55:11.058Z,8.17
2023-02-21T01:57:55.710Z,8.11
2023-02-21T02:00:39.134Z,8.31
2023-02-21T02:03:24.361Z,8.21
2023-02-21T02:06:11.237Z,8.05
2023-02-21T02:08:56.531Z,8.12
2023-02-21T02:12:13.376Z,8.08
2023-02-21T02:15:07.215Z,8.11
2023-02-21T02:17:47.485Z,8.28
2023-02-21T02:21:04.096Z,8.33
2023-02-21T02:24:08.547Z,8.14
2023-02-21T02:27:11.260Z,8.26
2023-02-21T02:30:08.902Z,8.13
2023-02-21T02:33:16.099Z,8.22
2023-02-21T02:35:56.121Z,8.19
2023-02-21T02:38:34.377Z,7.92
2023-02-21T02:41:16.265Z,7.89
2023-02-21T02:43:54.404Z,7.77
2023-02-21T02:46:31.963Z,7.59
2023-02-21T02:49:06.088Z,7.44
2023-02-21T02:51:39.648Z,7.44
2023-02-21T02:54:11.113Z,7.53
2023-02-21T02:56:41.108Z,7.58
2023-02-21T02:59:18.011Z,7.51
2023-02-21T03:02:11.119Z,7.49
2023-02-21T03:05:04.193Z,7.46
2023-02-21T03:07:58.321Z,7.41
2023-02-21T03:10:43.065Z,7.44
2023-02-21T03:13:20.874Z,7.39
2023-02-21T03:15:58.531Z,7.37
2023-02-21T03:18:36.301Z,7.30
2023-02-21T03:21:12.835Z,7.23
2023-02-21T03:23:51.718Z,7.14
2023-02-21T03:26:22.404Z,7.16
2023-02-21T03:28:59.683Z,7.11
2023-02-21T03:31:39.376Z,7.09
2023-02-21T03:34:09.407Z,7.15
2023-02-21T03:36:41.155Z,7.16
2023-02-21T03:39:15.357Z,7.10
2023-02-21T03:41:45.444Z,7.08
2023-02-21T03:44:15.767Z,7.04
2023-02-21T03:46:45.626Z,7.15
2023-02-21T03:49:15.566Z,7.12
2023-02-21T03:51:45.523Z,7.07
2023-02-21T03:54:18.035Z,7.09
2023-02-21T03:56:52.077Z,6.99
2023-02-21T03:59:27.018Z,7.03
2023-02-21T04:01:57.211Z,6.93
2023-02-21T04:04:28.437Z,6.98
2023-02-21T04:07:08.768Z,6.99
2023-02-21T04:09:41.567Z,6.95
2023-02-21T04:12:12.720Z,6.94
2023-02-21T04:14:43.518Z,6.93
2023-02-21T04:17:13.412Z,6.93
2023-02-21T04:19:43.585Z,6.88
2023-02-21T04:22:13.735Z,6.86
2023-02-21T04:24:48.136Z,6.84
2023-02-21T04:27:18.860Z,6.78
2023-02-21T04:29:54.228Z,6.75
2023-02-21T04:32:24.199Z,6.79
2023-02-21T04:34:54.270Z,6.87
2023-02-21T04:37:24.423Z,6.89
2023-02-21T04:39:57.613Z,6.79
2023-02-21T04:42:27.565Z,6.72
2023-02-21T04:45:00.237Z,6.71
2023-02-21T04:47:31.911Z,6.70
2023-02-21T04:50:01.900Z,6.64
2023-02-21T04:52:32.098Z,6.49
2023-02-21T04:55:04.561Z,6.34
2023-02-21T04:57:34.409Z,6.43
2023-02-21T05:00:07.465Z,6.39
2023-02-21T05:02:37.469Z,6.39
2023-02-21T05:05:07.546Z,6.16
2023-02-21T05:07:37.463Z,6.38
2023-02-21T05:10:11.032Z,6.47
2023-02-21T05:12:41.690Z,6.50
2023-02-21T05:15:12.726Z,6.43
2023-02-21T05:17:42.613Z,6.26
2023-02-21T05:20:14.288Z,6.26
2023-02-21T05:22:45.819Z,6.33
2023-02-21T05:25:21.486Z,6.21
2023-02-21T05:27:52.577Z,6.22
2023-02-21T05:30:24.010Z,6.19
2023-02-21T05:32:54.157Z,6.16
2023-02-21T05:35:24.035Z,6.21
2023-02-21T05:37:54.017Z,6.06
2023-02-21T05:40:26.569Z,6.14
2023-02-21T05:42:56.436Z,6.15
2023-02-21T05:45:26.255Z,6.16
2023-02-21T05:48:00.193Z,6.18
2023-02-21T05:50:30.085Z,6.18
2023-02-21T05:53:01.311Z,6.11
2023-02-21T05:55:33.866Z,6.16
2023-02-21T05:58:03.726Z,6.11
2023-02-21T06:00:34.657Z,6.11
2023-02-21T06:03:05.111Z,6.20
2023-02-21T06:05:35.076Z,6.08
2023-02-21T06:08:04.868Z,6.17
2023-02-21T06:10:37.355Z,6.10
2023-02-21T06:13:07.237Z,5.96
2023-02-21T06:15:37.178Z,5.95
2023-02-21T06:18:07.331Z,6.05
2023-02-21T06:20:37.340Z,6.15
2023-02-21T06:23:07.254Z,6.18
2023-02-21T06:25:39.696Z,6.19
2023-02-21T06:28:09.534Z,6.28
2023-02-21T06:30:39.605Z,6.14
2023-02-21T06:33:09.514Z,5.99
2023-02-21T06:35:39.342Z,6.14
2023-02-21T06:38:09.186Z,6.02
2023-02-21T06:40:41.619Z,6.12
2023-02-21T06:43:11.546Z,6.14
2023-02-21T06:45:41.484Z,6.19
2023-02-21T06:48:11.352Z,6.20
2023-02-21T06:50:41.303Z,6.06
2023-02-21T06:53:11.320Z,5.94
2023-02-21T06:55:43.900Z,5.97
2023-02-21T06:58:13.783Z,6.01
2023-02-21T07:00:43.672Z,5.94
2023-02-21T07:03:13.538Z,5.94
2023-02-21T07:05:44.082Z,5.83
2023-02-21T07:08:14.023Z,5.76
2023-02-21T07:10:46.535Z,5.86
2023-02-21T07:13:16.664Z,5.84
2023-02-21T07:15:47.748Z,5.84
2023-02-21T07:18:17.603Z,5.88
2023-02-21T07:20:47.501Z,5.90
2023-02-21T07:23:17.367Z,5.91
2023-02-21T07:25:49.898Z,5.94
2023-02-21T07:28:19.892Z,6.07
2023-02-21T07:30:50.003Z,6.11
2023-02-21T07:33:19.910Z,6.08
2023-02-21T07:35:49.748Z,6.24
2023-02-21T07:38:23.469Z,6.23
2023-02-21T07:40:57.475Z,6.27
2023-02-21T07:43:28.457Z,6.24
2023-02-21T07:45:59.118Z,6.28
2023-02-21T07:48:28.980Z,6.27
2023-02-21T07:50:58.796Z,6.32
2023-02-21T07:53:28.604Z,6.25
2023-02-21T07:56:01.044Z,6.40
2023-02-21T07:58:32.508Z,6.39
2023-02-21T08:01:03.394Z,6.43
2023-02-21T08:03:33.261Z,6.41
2023-02-21T08:06:03.867Z,6.38
2023-02-21T08:08:33.800Z,6.54
2023-02-21T08:11:06.418Z,6.60
2023-02-21T08:13:36.386Z,6.69
2023-02-21T08:16:06.678Z,6.64
2023-02-21T08:18:36.547Z,6.66
2023-02-21T08:21:07.037Z,6.64
2023-02-21T08:23:36.897Z,6.66
2023-02-21T08:26:09.441Z,6.79
2023-02-21T08:28:39.593Z,6.77
2023-02-21T08:31:10.297Z,6.86
2023-02-21T08:33:40.504Z,6.89
2023-02-21T08:36:11.532Z,6.96
2023-02-21T08:38:41.466Z,6.94
2023-02-21T08:41:14.103Z,7.03
2023-02-21T08:43:44.103Z,7.10
2023-02-21T08:46:13.997Z,7.15
2023-02-21T08:48:44.080Z,7.24
2023-02-21T08:51:14.231Z,7.42
2023-02-21T08:53:44.236Z,7.53
2023-02-21T08:56:21.405Z,7.57
2023-02-21T08:58:51.780Z,7.53
2023-02-21T09:01:21.678Z,7.61
2023-02-21T09:03:51.750Z,7.62
2023-02-21T09:06:21.669Z,7.67
2023-02-21T09:08:51.563Z,7.85
2023-02-21T09:11:24.382Z,7.95
2023-02-21T09:13:55.574Z,7.98
2023-02-21T09:16:25.914Z,8.08
2023-02-21T09:18:59.168Z,8.25
2023-02-21T09:21:30.298Z,8.32
2023-02-21T09:24:00.319Z,8.35
2023-02-21T09:26:34.608Z,8.46
2023-02-21T09:29:07.270Z,8.51
2023-02-21T09:31:37.190Z,8.62
2023-02-21T09:34:17.260Z,8.69
2023-02-21T09:36:47.777Z,8.75
2023-02-21T09:39:18.016Z,8.68
2023-02-21T09:41:51.958Z,8.83
2023-02-21T09:44:26.001Z,9.01
2023-02-21T09:47:01.164Z,9.10
2023-02-21T09:49:36.299Z,9.23
2023-02-21T09:52:06.580Z,9.37
2023-02-21T09:54:41.771Z,9.40
2023-02-21T09:57:18.356Z,9.51
2023-02-21T09:59:49.124Z,9.61
2023-02-21T10:02:41.317Z,9.68
2023-02-21T10:05:27.061Z,9.74
2023-02-21T10:08:07.846Z,9.77
2023-02-21T10:10:48.072Z,9.86
2023-02-21T10:13:38.031Z,10.19
2023-02-21T10:16:15.563Z,10.22
2023-02-21T10:18:56.289Z,10.25
2023-02-21T10:21:32.687Z,10.36
2023-02-21T10:24:07.353Z,10.45
2023-02-21T10:26:42.522Z,10.48
2023-02-21T10:29:24.767Z,10.67
2023-02-21T10:32:02.553Z,10.79
2023-02-21T10:34:36.423Z,11.07
2023-02-21T10:37:26.326Z,11.22
2023-02-21T10:40:07.602Z,11.32
2023-02-21T10:42:47.881Z,11.46
2023-02-21T10:45:23.137Z,11.60
2023-02-21T10:48:03.466Z,11.70
2023-02-21T10:50:43.839Z,11.82
2023-02-21T10:53:29.157Z,11.97
2023-02-21T10:56:24.929Z,12.27
2023-02-21T10:59:05.498Z,12.62
2023-02-21T11:01:49.261Z,12.83
2023-02-21T11:04:36.880Z,13.14
2023-02-21T11:07:10.851Z,13.33
2023-02-21T11:09:43.609Z,13.60
2023-02-21T11:12:24.072Z,13.86
2023-02-21T11:15:18.964Z,14.24
2023-02-21T11:18:07.110Z,14.64
2023-02-21T11:20:36.964Z,14.91
2023-02-21T11:23:09.889Z,15.33
2023-02-21T11:25:42.908Z,15.73
2023-02-21T11:28:24.246Z,16.54
2023-02-21T11:31:10.319Z,16.95
2023-02-21T11:33:47.015Z,17.17
2023-02-21T11:36:21.038Z,17.52
2023-02-21T11:39:06.354Z,17.87
2023-02-21T11:41:41.468Z,17.76
2023-02-21T11:44:27.347Z,18.21
2023-02-21T11:47:11.784Z,18.50
2023-02-21T11:49:52.628Z,19.36
2023-02-21T11:52:29.411Z,19.81
2023-02-21T11:54:59.665Z,19.82
2023-02-21T11:57:45.513Z,20.20
2023-02-21T12:00:39.886Z,19.66
2023-02-21T12:03:30.019Z,20.23
2023-02-21T12:06:14.741Z,20.38
2023-02-21T12:08:53.176Z,20.50
2023-02-21T12:11:39.471Z,21.54
2023-02-21T12:14:31.720Z,21.29
2023-02-21T12:17:16.901Z,21.40
2023-02-21T12:20:10.966Z,21.88
2023-02-21T12:23:01.823Z,21.75
2023-02-21T12:25:46.244Z,22.63
2023-02-21T12:28:29.152Z,23.37
2023-02-21T12:31:16.784Z,22.81
2023-02-21T12:33:59.156Z,23.10
2023-02-21T12:36:52.401Z,23.90
2023-02-21T12:39:42.417Z,23.42
2023-02-21T12:42:36.789Z,24.26
2023-02-21T12:45:30.018Z,23.90
2023-02-21T12:48:07.891Z,25.44
2023-02-21T12:50:45.256Z,25.83
2023-02-21T12:53:24.295Z,25.27
2023-02-21T12:56:10.195Z,24.24
2023-02-21T12:58:48.687Z,25.54
2023-02-21T13:01:27.150Z,26.03
2023-02-21T13:04:11.487Z,26.05
2023-02-21T13:06:50.575Z,26.18
2023-02-21T13:09:32.163Z,26.39
2023-02-21T13:12:10.173Z,26.69
2023-02-21T13:14:48.182Z,25.85
2023-02-21T13:17:20.864Z,26.99
2023-02-21T13:19:56.294Z,26.26
2023-02-21T13:23:08.686Z,26.32
2023-02-21T13:26:15.496Z,28.42
2023-02-21T13:28:48.713Z,27.33
2023-02-21T13:31:24.700Z,27.35
2023-02-21T13:33:58.562Z,26.70
2023-02-21T13:36:33.792Z,28.46
2023-02-21T13:39:07.591Z,28.50
2023-02-21T13:41:41.491Z,29.96
2023-02-21T13:44:20.278Z,29.68
2023-02-21T13:47:18.432Z,29.48
2023-02-21T13:49:56.706Z,29.23
2023-02-21T13:52:36.675Z,30.00
2023-02-21T13:55:36.944Z,28.54
2023-02-21T13:58:48.420Z,30.83
2023-02-21T14:01:43.831Z,29.79
2023-02-21T14:04:43.722Z,29.76
2023-02-21T14:07:13.640Z,30.42
2023-02-21T14:09:45.289Z,29.50
2023-02-21T14:12:16.582Z,29.65
2023-02-21T14:14:52.638Z,29.65
2023-02-21T14:17:32.109Z,29.84
2023-02-21T14:20:06.054Z,29.98
2023-02-21T14:22:38.266Z,29.58
2023-02-21T14:25:12.018Z,29.74
2023-02-21T14:27:42.411Z,29.71
2023-02-21T14:30:34.959Z,30.25
2023-02-21T14:33:37.465Z,29.86
2023-02-21T14:36:15.098Z,30.33
2023-02-21T14:38:50.227Z,30.41
2023-02-21T14:41:40.827Z,28.45
2023-02-21T14:44:31.276Z,29.66
2023-02-21T14:47:25.758Z,29.12
2023-02-21T14:50:16.720Z,29.71
2023-02-21T14:53:22.099Z,29.13
2023-02-21T14:56:15.725Z,29.94
2023-02-21T14:59:25.594Z,29.84
2023-02-21T15:02:04.498Z,29.52
2023-02-21T15:04:44.356Z,29.10
2023-02-21T15:07:23.291Z,27.89
2023-02-21T15:10:10.868Z,26.18
2023-02-21T15:12:46.782Z,24.50
2023-02-21T15:15:24.904Z,23.08
2023-02-21T15:18:02.010Z,23.02
2023-02-21T15:20:34.168Z,22.66
2023-02-21T15:23:15.896Z,21.77
2023-02-21T15:25:47.032Z,21.56
2023-02-21T15:28:25.944Z,21.65
2023-02-21T15:31:05.286Z,21.46
2023-02-21T15:33:38.191Z,21.39
2023-02-21T15:36:11.828Z,21.06
2023-02-21T15:38:49.802Z,21.18
2023-02-21T15:41:31.107Z,20.82
2023-02-21T15:44:08.024Z,20.76
2023-02-21T15:46:48.499Z,20.62
2023-02-21T15:49:24.999Z,20.44
2023-02-21T15:51:55.473Z,20.34
2023-02-21T15:54:31.681Z,19.96
2023-02-21T15:57:20.292Z,19.85
2023-02-21T15:59:51.966Z,19.87
2023-02-21T16:02:26.528Z,19.65
2023-02-21T16:04:57.427Z,19.37
2023-02-21T16:07:37.458Z,18.94
2023-02-21T16:10:14.425Z,19.05
2023-02-21T16:12:50.203Z,18.91
2023-02-21T16:15:27.336Z,18.82
2023-02-21T16:18:00.420Z,18.53
2023-02-21T16:20:35.712Z,18.51
2023-02-21T16:23:23.385Z,18.45
2023-02-21T16:26:04.974Z,18.31
2023-02-21T16:28:34.909Z,18.26
2023-02-21T16:31:07.600Z,18.00
2023-02-21T16:33:39.079Z,17.91
2023-02-21T16:36:20.634Z,17.77
2023-02-21T16:38:50.493Z,17.64
2023-02-21T16:41:23.026Z,17.44
2023-02-21T16:43:53.428Z,17.36
2023-02-21T16:46:30.145Z,17.16
2023-02-21T16:49:00.646Z,17.08
2023-02-21T16:51:35.070Z,16.92
2023-02-21T16:54:06.019Z,16.80
2023-02-21T16:56:40.049Z,16.55
2023-02-21T16:59:14.349Z,16.39
2023-02-21T17:01:44.772Z,16.31
2023-02-21T17:04:19.085Z,15.91
2023-02-21T17:06:53.584Z,15.93
2023-02-21T17:09:25.339Z,15.87
2023-02-21T17:11:58.376Z,15.91
2023-02-21T17:14:28.221Z,15.68
2023-02-21T17:16:58.232Z,15.78
2023-02-21T17:19:28.613Z,15.64
2023-02-21T17:22:00.390Z,15.42
2023-02-21T17:24:30.396Z,15.21
2023-02-21T17:27:04.167Z,15.04
2023-02-21T17:29:34.116Z,15.12
2023-02-21T17:32:07.180Z,14.96
2023-02-21T17:34:38.188Z,15.01
2023-02-21T17:37:09.781Z,14.66
2023-02-21T17:39:39.898Z,14.74
2023-02-21T17:42:12.617Z,14.50
2023-02-21T17:44:47.342Z,14.48
2023-02-21T17:47:17.429Z,14.21
2023-02-21T17:49:50.593Z,14.29
2023-02-21T17:52:21.171Z,14.29
2023-02-21T17:54:51.154Z,14.40
2023-02-21T17:57:23.917Z,14.23
2023-02-21T17:59:53.802Z,14.11
2023-02-21T18:02:23.698Z,14.06
2023-02-21T18:04:53.605Z,14.04
2023-02-21T18:07:24.943Z,13.93
2023-02-21T18:09:54.964Z,13.78
2023-02-21T18:12:27.448Z,13.81
2023-02-21T18:14:57.335Z,13.68
2023-02-21T18:17:27.264Z,13.66
2023-02-21T18:19:57.087Z,13.50
2023-02-21T18:22:27.139Z,13.33
2023-02-21T18:25:03.482Z,13.30
2023-02-21T18:27:36.354Z,13.26
2023-02-21T18:30:06.870Z,13.27
2023-02-21T18:32:36.946Z,13.24
2023-02-21T18:35:07.343Z,13.22
2023-02-21T18:37:38.049Z,13.22
2023-02-21T18:40:09.290Z,13.13
2023-02-21T18:42:45.178Z,13.06
2023-02-21T18:45:15.530Z,12.89
2023-02-21T18:47:45.904Z,12.97
2023-02-21T18:50:16.737Z,13.02
2023-02-21T18:52:49.986Z,12.98
2023-02-21T18:55:23.117Z,13.05
2023-02-21T18:57:55.706Z,12.92
2023-02-21T19:00:27.136Z,12.79
2023-02-21T19:02:57.502Z,12.71
2023-02-21T19:05:28.701Z,12.73
2023-02-21T19:07:59.635Z,12.88
2023-02-21T19:10:31.850Z,12.70
2023-02-21T19:13:05.453Z,12.72
2023-02-21T19:15:36.061Z,12.52
2023-02-21T19:18:06.287Z,12.49
2023-02-21T19:20:36.889Z,12.48
2023-02-21T19:23:06.913Z,12.44
2023-02-21T19:25:36.836Z,12.35
2023-02-21T19:28:09.360Z,12.48
2023-02-21T19:30:39.313Z,12.36
2023-02-21T19:33:11.993Z,12.29
2023-02-21T19:35:42.020Z,12.15
2023-02-21T19:38:12.331Z,12.20
2023-02-21T19:40:43.372Z,12.23
2023-02-21T19:43:48.772Z,12.01
2023-02-21T19:46:49.339Z,11.95
2023-02-21T19:49:21.927Z,11.93
2023-02-21T19:51:54.291Z,11.79
2023-02-21T19:54:27.147Z,11.78
2023-02-21T19:56:57.116Z,11.67
2023-02-21T19:59:32.211Z,11.77
2023-02-21T20:02:04.114Z,11.68
2023-02-21T20:04:35.189Z,11.52
2023-02-21T20:07:05.172Z,11.53
2023-02-21T20:09:35.125Z,11.57
2023-02-21T20:12:05.076Z,11.54
2023-02-21T20:14:37.713Z,11.58
2023-02-21T20:17:07.664Z,11.49
2023-02-21T20:19:37.625Z,11.37
2023-02-21T20:22:07.649Z,11.39
2023-02-21T20:24:37.489Z,11.29
2023-02-21T20:27:07.489Z,11.22
2023-02-21T20:29:40.064Z,11.28
2023-02-21T20:32:10.137Z,11.29
2023-02-21T20:34:42.684Z,11.28
2023-02-21T20:37:14.456Z,11.27
2023-02-21T20:39:44.585Z,11.19
2023-02-21T20:42:14.805Z,11.20
2023-02-21T20:44:50.041Z,11.21
2023-02-21T20:47:23.684Z,11.23
2023-02-21T20:49:56.656Z,11.20
2023-02-21T20:52:27.036Z,11.12
2023-02-21T20:54:57.606Z,11.15
2023-02-21T20:57:27.835Z,11.06
2023-02-21T21:00:00.739Z,11.20
2023-02-21T21:02:31.697Z,11.24
2023-02-21T21:05:09.259Z,11.16
2023-02-21T21:07:39.203Z,11.03
2023-02-21T21:10:13.656Z,10.95
2023-02-21T21:12:45.591Z,10.91
2023-02-21T21:15:19.397Z,10.86
2023-02-21T21:17:50.436Z,10.92
2023-02-21T21:20:22.692Z,10.76
2023-02-21T21:22:53.334Z,10.82
2023-02-21T21:25:23.499Z,10.79
2023-02-21T21:27:55.579Z,10.77
2023-02-21T21:30:28.521Z,10.77
2023-02-21T21:33:02.054Z,10.85
2023-02-21T21:35:32.540Z,10.78
2023-02-21T21:38:03.310Z,10.73
2023-02-21T21:40:33.382Z,10.71
2023-02-21T21:43:16.513Z,10.60
2023-02-21T21:45:58.582Z,10.62
2023-02-21T21:48:31.378Z,10.54
2023-02-21T21:51:02.511Z,10.52
2023-02-21T21:53:32.560Z,10.46
2023-02-21T21:56:06.012Z,10.55
2023-02-21T21:58:36.808Z,10.47
2023-02-21T22:01:09.938Z,10.46
2023-02-21T22:03:40.104Z,10.44
2023-02-21T22:06:13.492Z,10.41
2023-02-21T22:08:43.323Z,10.43
2023-02-21T22:11:13.233Z,10.39
2023-02-21T22:13:43.120Z,10.38
2023-02-21T22:16:15.904Z,10.38
2023-02-21T22:18:46.972Z,10.37
2023-02-21T22:21:17.310Z,10.41
2023-02-21T22:23:48.495Z,10.31
2023-02-21T22:26:21.304Z,10.19
2023-02-21T22:28:51.524Z,10.25
2023-02-21T22:31:24.397Z,10.24
2023-02-21T22:33:59.138Z,10.23
2023-02-21T22:36:29.267Z,10.12
2023-02-21T22:39:01.724Z,10.13
2023-02-21T22:41:34.113Z,9.93
2023-02-21T22:44:04.182Z,10.03
2023-02-21T22:46:44.827Z,10.06
2023-02-21T22:49:16.921Z,10.04
2023-02-21T22:51:46.988Z,10.00
2023-02-21T22:54:17.243Z,10.00
2023-02-21T22:56:55.153Z,9.84
2023-02-21T22:59:27.048Z,9.89
2023-02-21T23:02:00.106Z,9.88
2023-02-21T23:04:37.489Z,9.84
2023-02-21T23:07:07.839Z,9.86
2023-02-21T23:09:38.367Z,9.81
2023-02-21T23:12:08.645Z,9.81
2023-02-21T23:14:39.529Z,9.71
2023-02-21T23:17:12.329Z,9.81
2023-02-21T23:19:42.244Z,9.80
2023-02-21T23:22:12.584Z,9.75
2023-02-21T23:24:45.938Z,9.59
2023-02-21T23:27:15.790Z,9.63
2023-02-21T23:29:47.849Z,9.55
2023-02-21T23:32:20.382Z,9.64
2023-02-21T23:34:50.782Z,9.67
2023-02-21T23:37:20.661Z,9.63
2023-02-21T23:39:50.517Z,9.57
2023-02-21T23:42:20.359Z,9.56
2023-02-21T23:44:50.874Z,9.35
2023-02-21T23:47:23.342Z,9.40
2023-02-21T23:49:53.209Z,9.32
2023-02-21T23:52:23.012Z,9.39
2023-02-21T23:54:55.554Z,9.38
2023-02-21T23:57:25.428Z,9.29
2023-02-21T23:59:55.325Z,9.21
